sensor_id;sensor_type;location;lat;lon;timestamp;temperature;humidity
1994;DHT22;998;49.906;10.908;2023-11-19T00:00:20;5.90;99.90
1994;DHT22;998;49.906;10.908;2023-11-19T00:02:48;5.90;99.90
1994;DHT22;998;49.906;10.908;2023-11-19T00:05:15;5.90;99.90
1994;DHT22;998;49.906;10.908;2023-11-19T00:07:44;5.80;99.90
1994;DHT22;998;49.906;10.908;2023-11-19T00:10:13;5.80;99.90
1994;DHT22;998;49.906;10.908;2023-11-19T00:12:42;5.90;99.90
1994;DHT22;998;49.906;10.908;2023-11-19T00:15:10;5.90;99.90
1994;DHT22;998;49.906;10.908;2023-11-19T00:17:37;5.90;99.90
1994;DHT22;998;49.906;10.908;2023-11-19T00:20:07;5.90;99.90
1994;DHT22;998;49.906;10.908;2023-11-19T00:22:34;5.90;99.90
1994;DHT22;998;49.906;10.908;2023-11-19T00:25:04;5.90;99.90
1994;DHT22;998;49.906;10.908;2023-11-19T00:27:32;5.90;99.90
1994;DHT22;998;49.906;10.908;2023-11-19T00:30:00;5.90;99.90
1994;DHT22;998;49.906;10.908;2023-11-19T00:32:27;5.90;99.90
1994;DHT22;998;49.906;10.908;2023-11-19T00:34:55;5.90;99.90
1994;DHT22;998;49.906;10.908;2023-11-19T00:37:22;5.90;99.90
1994;DHT22;998;49.906;10.908;2023-11-19T00:39:50;5.90;99.90
1994;DHT22;998;49.906;10.908;2023-11-19T00:42:19;5.90;99.90
1994;DHT22;998;49.906;10.908;2023-11-19T00:44:46;6.20;99.90
1994;DHT22;998;49.906;10.908;2023-11-19T00:47:14;5.90;99.90
1994;DHT22;998;49.906;10.908;2023-11-19T00:49:41;5.90;99.90
1994;DHT22;998;49.906;10.908;2023-11-19T00:52:09;5.90;99.90
1994;DHT22;998;49.906;10.908;2023-11-19T00:54:36;5.90;99.90
1994;DHT22;998;49.906;10.908;2023-11-19T00:57:04;5.90;99.90
1994;DHT22;998;49.906;10.908;2023-11-19T00:59:33;5.90;99.90
1994;DHT22;998;49.906;10.908;2023-11-19T01:02:00;5.90;99.90
1994;DHT22;998;49.906;10.908;2023-11-19T01:04:29;6.00;99.90
1994;DHT22;998;49.906;10.908;2023-11-19T01:06:55;6.00;99.90
1994;DHT22;998;49.906;10.908;2023-11-19T01:09:23;5.80;99.90
1994;DHT22;998;49.906;10.908;2023-11-19T01:11:50;6.00;99.90
1994;DHT22;998;49.906;10.908;2023-11-19T01:14:18;6.00;99.90
1994;DHT22;998;49.906;10.908;2023-11-19T01:16:47;6.00;99.90
1994;DHT22;998;49.906;10.908;2023-11-19T01:19:14;6.00;99.90
1994;DHT22;998;49.906;10.908;2023-11-19T01:21:42;6.00;99.90
1994;DHT22;998;49.906;10.908;2023-11-19T01:24:09;6.00;99.90
1994;DHT22;998;49.906;10.908;2023-11-19T01:26:39;6.00;99.90
1994;DHT22;998;49.906;10.908;2023-11-19T01:29:11;7.30;99.90
1994;DHT22;998;49.906;10.908;2023-11-19T01:31:39;6.00;99.90
1994;DHT22;998;49.906;10.908;2023-11-19T01:34:08;6.10;99.90
1994;DHT22;998;49.906;10.908;2023-11-19T01:36:37;6.10;99.90
1994;DHT22;998;49.906;10.908;2023-11-19T01:39:05;6.10;99.90
1994;DHT22;998;49.906;10.908;2023-11-19T01:41:34;6.10;99.90
1994;DHT22;998;49.906;10.908;2023-11-19T01:44:02;6.00;99.90
1994;DHT22;998;49.906;10.908;2023-11-19T01:46:30;6.10;99.90
1994;DHT22;998;49.906;10.908;2023-11-19T01:49:00;6.00;99.90
1994;DHT22;998;49.906;10.908;2023-11-19T01:51:29;6.10;99.90
1994;DHT22;998;49.906;10.908;2023-11-19T01:53:57;6.10;99.90
1994;DHT22;998;49.906;10.908;2023-11-19T01:56:26;6.10;99.90
1994;DHT22;998;49.906;10.908;2023-11-19T01:58:55;6.10;99.90
1994;DHT22;998;49.906;10.908;2023-11-19T02:01:22;6.10;99.90
1994;DHT22;998;49.906;10.908;2023-11-19T02:03:51;6.10;99.90
1994;DHT22;998;49.906;10.908;2023-11-19T02:06:18;6.10;99.90
1994;DHT22;998;49.906;10.908;2023-11-19T02:08:47;6.10;99.90
1994;DHT22;998;49.906;10.908;2023-11-19T02:11:14;6.40;99.90
1994;DHT22;998;49.906;10.908;2023-11-19T02:13:42;6.10;99.90
1994;DHT22;998;49.906;10.908;2023-11-19T02:16:10;6.10;99.90
1994;DHT22;998;49.906;10.908;2023-11-19T02:18:37;6.10;99.90
1994;DHT22;998;49.906;10.908;2023-11-19T02:21:05;6.10;99.90
1994;DHT22;998;49.906;10.908;2023-11-19T02:23:33;6.10;99.90
1994;DHT22;998;49.906;10.908;2023-11-19T02:26:10;6.10;99.90
1994;DHT22;998;49.906;10.908;2023-11-19T02:28:42;6.10;99.90
1994;DHT22;998;49.906;10.908;2023-11-19T02:31:10;6.10;99.90
1994;DHT22;998;49.906;10.908;2023-11-19T02:33:38;6.10;99.90
1994;DHT22;998;49.906;10.908;2023-11-19T02:36:07;6.10;99.90
1994;DHT22;998;49.906;10.908;2023-11-19T02:38:35;6.10;99.90
1994;DHT22;998;49.906;10.908;2023-11-19T02:41:04;6.10;99.90
1994;DHT22;998;49.906;10.908;2023-11-19T02:43:32;6.20;99.90
1994;DHT22;998;49.906;10.908;2023-11-19T02:46:02;6.10;99.90
1994;DHT22;998;49.906;10.908;2023-11-19T02:48:32;6.10;99.90
1994;DHT22;998;49.906;10.908;2023-11-19T02:51:01;6.20;99.90
1994;DHT22;998;49.906;10.908;2023-11-19T02:53:29;6.20;99.90
1994;DHT22;998;49.906;10.908;2023-11-19T02:55:56;6.20;99.90
1994;DHT22;998;49.906;10.908;2023-11-19T02:58:32;6.20;99.90
1994;DHT22;998;49.906;10.908;2023-11-19T03:01:01;6.20;99.90
1994;DHT22;998;49.906;10.908;2023-11-19T03:03:38;6.30;99.90
1994;DHT22;998;49.906;10.908;2023-11-19T03:06:06;6.20;99.90
1994;DHT22;998;49.906;10.908;2023-11-19T03:08:36;6.20;99.90
1994;DHT22;998;49.906;10.908;2023-11-19T03:11:04;6.20;99.90
1994;DHT22;998;49.906;10.908;2023-11-19T03:13:31;6.30;99.90
1994;DHT22;998;49.906;10.908;2023-11-19T03:15:59;6.20;99.90
1994;DHT22;998;49.906;10.908;2023-11-19T03:18:28;6.20;99.90
1994;DHT22;998;49.906;10.908;2023-11-19T03:20:55;6.20;99.90
1994;DHT22;998;49.906;10.908;2023-11-19T03:23:24;6.20;99.90
1994;DHT22;998;49.906;10.908;2023-11-19T03:25:53;6.20;99.90
1994;DHT22;998;49.906;10.908;2023-11-19T03:28:21;6.20;99.90
1994;DHT22;998;49.906;10.908;2023-11-19T03:30:48;6.30;99.90
1994;DHT22;998;49.906;10.908;2023-11-19T03:33:16;6.30;99.90
1994;DHT22;998;49.906;10.908;2023-11-19T03:35:44;6.30;99.90
1994;DHT22;998;49.906;10.908;2023-11-19T03:38:12;6.30;99.90
1994;DHT22;998;49.906;10.908;2023-11-19T03:40:40;6.30;99.90
1994;DHT22;998;49.906;10.908;2023-11-19T03:43:07;6.30;99.90
1994;DHT22;998;49.906;10.908;2023-11-19T03:45:35;6.30;99.90
1994;DHT22;998;49.906;10.908;2023-11-19T03:48:03;6.30;99.90
1994;DHT22;998;49.906;10.908;2023-11-19T03:50:31;6.30;99.90
1994;DHT22;998;49.906;10.908;2023-11-19T03:53:00;6.40;99.90
1994;DHT22;998;49.906;10.908;2023-11-19T03:55:28;6.40;99.90
1994;DHT22;998;49.906;10.908;2023-11-19T03:57:57;6.40;99.90
1994;DHT22;998;49.906;10.908;2023-11-19T04:00:24;6.40;99.90
1994;DHT22;998;49.906;10.908;2023-11-19T04:02:51;6.40;99.90
1994;DHT22;998;49.906;10.908;2023-11-19T04:05:19;6.40;99.90
1994;DHT22;998;49.906;10.908;2023-11-19T04:07:46;6.40;99.90
1994;DHT22;998;49.906;10.908;2023-11-19T04:10:15;6.40;99.90
1994;DHT22;998;49.906;10.908;2023-11-19T04:12:44;6.40;99.90
1994;DHT22;998;49.906;10.908;2023-11-19T04:15:11;6.50;99.90
1994;DHT22;998;49.906;10.908;2023-11-19T04:17:39;6.40;99.90
1994;DHT22;998;49.906;10.908;2023-11-19T04:20:07;6.50;99.90
1994;DHT22;998;49.906;10.908;2023-11-19T04:22:38;6.50;99.90
1994;DHT22;998;49.906;10.908;2023-11-19T04:25:06;6.50;99.90
1994;DHT22;998;49.906;10.908;2023-11-19T04:27:35;6.50;99.90
1994;DHT22;998;49.906;10.908;2023-11-19T04:30:02;6.50;99.90
1994;DHT22;998;49.906;10.908;2023-11-19T04:32:31;6.50;99.90
1994;DHT22;998;49.906;10.908;2023-11-19T04:34:58;6.50;99.90
1994;DHT22;998;49.906;10.908;2023-11-19T04:37:26;6.60;99.90
1994;DHT22;998;49.906;10.908;2023-11-19T04:39:53;6.60;99.90
1994;DHT22;998;49.906;10.908;2023-11-19T04:42:22;6.50;99.90
1994;DHT22;998;49.906;10.908;2023-11-19T04:44:51;6.90;99.90
1994;DHT22;998;49.906;10.908;2023-11-19T04:47:18;6.60;99.90
1994;DHT22;998;49.906;10.908;2023-11-19T04:49:46;6.60;99.90
1994;DHT22;998;49.906;10.908;2023-11-19T04:52:14;6.60;99.90
1994;DHT22;998;49.906;10.908;2023-11-19T04:54:41;6.80;99.90
1994;DHT22;998;49.906;10.908;2023-11-19T04:57:09;6.70;99.90
1994;DHT22;998;49.906;10.908;2023-11-19T04:59:37;6.70;99.90
1994;DHT22;998;49.906;10.908;2023-11-19T05:02:06;6.70;99.90
1994;DHT22;998;49.906;10.908;2023-11-19T05:04:33;6.80;99.90
1994;DHT22;998;49.906;10.908;2023-11-19T05:07:01;6.80;99.90
1994;DHT22;998;49.906;10.908;2023-11-19T05:09:28;6.80;99.90
1994;DHT22;998;49.906;10.908;2023-11-19T05:11:56;6.80;99.90
1994;DHT22;998;49.906;10.908;2023-11-19T05:14:23;6.90;99.90
1994;DHT22;998;49.906;10.908;2023-11-19T05:16:51;6.90;99.90
1994;DHT22;998;49.906;10.908;2023-11-19T05:19:19;6.90;99.90
1994;DHT22;998;49.906;10.908;2023-11-19T05:21:46;6.90;99.90
1994;DHT22;998;49.906;10.908;2023-11-19T05:24:13;7.00;99.90
1994;DHT22;998;49.906;10.908;2023-11-19T05:26:40;7.00;99.90
1994;DHT22;998;49.906;10.908;2023-11-19T05:29:08;7.00;99.90
1994;DHT22;998;49.906;10.908;2023-11-19T05:31:35;7.00;99.90
1994;DHT22;998;49.906;10.908;2023-11-19T05:34:03;7.00;99.90
1994;DHT22;998;49.906;10.908;2023-11-19T05:36:32;7.00;99.90
1994;DHT22;998;49.906;10.908;2023-11-19T05:38:59;7.00;99.90
1994;DHT22;998;49.906;10.908;2023-11-19T05:41:27;7.00;99.90
1994;DHT22;998;49.906;10.908;2023-11-19T05:43:54;7.10;99.90
1994;DHT22;998;49.906;10.908;2023-11-19T05:46:22;7.00;99.90
1994;DHT22;998;49.906;10.908;2023-11-19T05:48:51;7.00;99.90
1994;DHT22;998;49.906;10.908;2023-11-19T05:51:18;7.10;99.90
1994;DHT22;998;49.906;10.908;2023-11-19T05:53:47;7.10;99.90
1994;DHT22;998;49.906;10.908;2023-11-19T05:56:16;7.10;99.90
1994;DHT22;998;49.906;10.908;2023-11-19T05:58:47;7.10;99.90
1994;DHT22;998;49.906;10.908;2023-11-19T06:01:15;7.10;99.90
1994;DHT22;998;49.906;10.908;2023-11-19T06:03:42;7.10;99.90
1994;DHT22;998;49.906;10.908;2023-11-19T06:06:13;7.10;99.90
1994;DHT22;998;49.906;10.908;2023-11-19T06:08:40;7.00;99.90
1994;DHT22;998;49.906;10.908;2023-11-19T06:11:10;7.00;99.90
1994;DHT22;998;49.906;10.908;2023-11-19T06:13:40;7.10;99.90
1994;DHT22;998;49.906;10.908;2023-11-19T06:16:09;7.10;99.90
1994;DHT22;998;49.906;10.908;2023-11-19T06:18:36;7.20;99.90
1994;DHT22;998;49.906;10.908;2023-11-19T06:21:04;7.10;99.90
1994;DHT22;998;49.906;10.908;2023-11-19T06:23:32;7.10;99.90
1994;DHT22;998;49.906;10.908;2023-11-19T06:25:59;7.10;99.90
1994;DHT22;998;49.906;10.908;2023-11-19T06:28:28;7.20;99.90
1994;DHT22;998;49.906;10.908;2023-11-19T06:30:55;7.20;99.90
1994;DHT22;998;49.906;10.908;2023-11-19T06:33:24;7.20;99.90
1994;DHT22;998;49.906;10.908;2023-11-19T06:35:52;7.30;99.90
1994;DHT22;998;49.906;10.908;2023-11-19T06:38:20;7.20;99.90
1994;DHT22;998;49.906;10.908;2023-11-19T06:40:47;7.20;99.90
1994;DHT22;998;49.906;10.908;2023-11-19T06:43:15;7.20;99.90
1994;DHT22;998;49.906;10.908;2023-11-19T06:45:44;7.20;99.90
1994;DHT22;998;49.906;10.908;2023-11-19T06:48:11;7.30;99.90
1994;DHT22;998;49.906;10.908;2023-11-19T06:50:38;7.40;99.90
1994;DHT22;998;49.906;10.908;2023-11-19T06:53:06;7.40;99.90
1994;DHT22;998;49.906;10.908;2023-11-19T06:55:36;7.40;99.90
1994;DHT22;998;49.906;10.908;2023-11-19T06:58:03;7.40;99.90
1994;DHT22;998;49.906;10.908;2023-11-19T07:00:31;7.40;99.90
1994;DHT22;998;49.906;10.908;2023-11-19T07:03:00;7.40;99.90
1994;DHT22;998;49.906;10.908;2023-11-19T07:05:27;7.40;99.90
1994;DHT22;998;49.906;10.908;2023-11-19T07:08:01;7.40;99.90
1994;DHT22;998;49.906;10.908;2023-11-19T07:10:28;7.50;99.90
1994;DHT22;998;49.906;10.908;2023-11-19T07:12:56;7.50;99.90
1994;DHT22;998;49.906;10.908;2023-11-19T07:15:23;7.80;99.90
1994;DHT22;998;49.906;10.908;2023-11-19T07:17:51;7.50;99.90
1994;DHT22;998;49.906;10.908;2023-11-19T07:20:21;7.50;99.90
1994;DHT22;998;49.906;10.908;2023-11-19T07:22:48;7.60;99.90
1994;DHT22;998;49.906;10.908;2023-11-19T07:25:16;7.60;99.90
1994;DHT22;998;49.906;10.908;2023-11-19T07:27:43;7.80;99.90
1994;DHT22;998;49.906;10.908;2023-11-19T07:30:10;7.60;99.90
1994;DHT22;998;49.906;10.908;2023-11-19T07:32:38;7.70;99.90
1994;DHT22;998;49.906;10.908;2023-11-19T07:35:06;7.70;99.90
1994;DHT22;998;49.906;10.908;2023-11-19T07:37:35;7.70;99.90
1994;DHT22;998;49.906;10.908;2023-11-19T07:40:03;7.80;99.90
1994;DHT22;998;49.906;10.908;2023-11-19T07:42:30;7.80;99.90
1994;DHT22;998;49.906;10.908;2023-11-19T07:44:58;7.80;99.90
1994;DHT22;998;49.906;10.908;2023-11-19T07:47:25;7.90;99.90
1994;DHT22;998;49.906;10.908;2023-11-19T07:49:54;8.00;99.90
1994;DHT22;998;49.906;10.908;2023-11-19T07:52:22;8.00;99.90
1994;DHT22;998;49.906;10.908;2023-11-19T07:54:50;8.10;99.90
1994;DHT22;998;49.906;10.908;2023-11-19T07:57:17;8.10;99.90
1994;DHT22;998;49.906;10.908;2023-11-19T07:59:46;8.20;99.90
1994;DHT22;998;49.906;10.908;2023-11-19T08:02:21;8.20;99.90
1994;DHT22;998;49.906;10.908;2023-11-19T08:04:49;8.20;99.90
1994;DHT22;998;49.906;10.908;2023-11-19T08:07:17;7.80;99.90
1994;DHT22;998;49.906;10.908;2023-11-19T08:09:45;8.30;99.90
1994;DHT22;998;49.906;10.908;2023-11-19T08:12:14;8.30;99.90
1994;DHT22;998;49.906;10.908;2023-11-19T08:14:43;8.40;99.90
1994;DHT22;998;49.906;10.908;2023-11-19T08:17:11;8.40;99.90
1994;DHT22;998;49.906;10.908;2023-11-19T08:19:38;8.40;99.90
1994;DHT22;998;49.906;10.908;2023-11-19T08:22:05;8.50;99.90
1994;DHT22;998;49.906;10.908;2023-11-19T08:24:33;8.40;99.90
1994;DHT22;998;49.906;10.908;2023-11-19T08:27:00;8.50;99.90
1994;DHT22;998;49.906;10.908;2023-11-19T08:29:29;8.60;99.90
1994;DHT22;998;49.906;10.908;2023-11-19T08:31:56;8.60;99.90
1994;DHT22;998;49.906;10.908;2023-11-19T08:34:25;8.50;99.90
1994;DHT22;998;49.906;10.908;2023-11-19T08:36:52;8.50;99.90
1994;DHT22;998;49.906;10.908;2023-11-19T08:39:19;8.70;99.90
1994;DHT22;998;49.906;10.908;2023-11-19T08:41:47;8.90;99.90
1994;DHT22;998;49.906;10.908;2023-11-19T08:44:15;8.90;99.90
1994;DHT22;998;49.906;10.908;2023-11-19T08:46:48;9.10;99.90
1994;DHT22;998;49.906;10.908;2023-11-19T08:49:15;9.10;99.90
1994;DHT22;998;49.906;10.908;2023-11-19T08:51:43;9.20;99.90
1994;DHT22;998;49.906;10.908;2023-11-19T08:54:11;9.20;99.90
1994;DHT22;998;49.906;10.908;2023-11-19T08:56:38;9.30;99.90
1994;DHT22;998;49.906;10.908;2023-11-19T08:59:06;9.40;99.90
1994;DHT22;998;49.906;10.908;2023-11-19T09:01:34;9.40;99.90
1994;DHT22;998;49.906;10.908;2023-11-19T09:04:03;9.50;99.90
1994;DHT22;998;49.906;10.908;2023-11-19T09:06:32;9.60;99.90
1994;DHT22;998;49.906;10.908;2023-11-19T09:08:59;9.70;99.90
1994;DHT22;998;49.906;10.908;2023-11-19T09:11:28;9.80;99.90
1994;DHT22;998;49.906;10.908;2023-11-19T09:13:55;9.90;99.90
1994;DHT22;998;49.906;10.908;2023-11-19T09:16:22;9.90;99.90
1994;DHT22;998;49.906;10.908;2023-11-19T09:18:50;9.80;99.90
1994;DHT22;998;49.906;10.908;2023-11-19T09:21:18;9.90;99.90
1994;DHT22;998;49.906;10.908;2023-11-19T09:23:46;10.00;99.90
1994;DHT22;998;49.906;10.908;2023-11-19T09:26:15;10.10;99.90
1994;DHT22;998;49.906;10.908;2023-11-19T09:28:42;10.20;99.90
1994;DHT22;998;49.906;10.908;2023-11-19T09:31:16;10.30;99.90
1994;DHT22;998;49.906;10.908;2023-11-19T09:33:43;10.40;99.90
1994;DHT22;998;49.906;10.908;2023-11-19T09:36:12;10.50;99.90
1994;DHT22;998;49.906;10.908;2023-11-19T09:38:44;10.60;99.90
1994;DHT22;998;49.906;10.908;2023-11-19T09:41:11;10.60;99.90
1994;DHT22;998;49.906;10.908;2023-11-19T09:43:39;10.60;99.90
1994;DHT22;998;49.906;10.908;2023-11-19T09:46:09;10.60;99.90
1994;DHT22;998;49.906;10.908;2023-11-19T09:48:38;10.70;99.90
1994;DHT22;998;49.906;10.908;2023-11-19T09:51:06;10.70;99.90
1994;DHT22;998;49.906;10.908;2023-11-19T09:53:35;10.80;99.90
1994;DHT22;998;49.906;10.908;2023-11-19T09:56:05;10.80;99.90
1994;DHT22;998;49.906;10.908;2023-11-19T09:58:33;10.80;99.90
1994;DHT22;998;49.906;10.908;2023-11-19T10:01:01;10.80;99.90
1994;DHT22;998;49.906;10.908;2023-11-19T10:03:33;10.90;99.90
1994;DHT22;998;49.906;10.908;2023-11-19T10:06:01;11.30;99.90
1994;DHT22;998;49.906;10.908;2023-11-19T10:08:29;11.20;99.90
1994;DHT22;998;49.906;10.908;2023-11-19T10:10:57;11.20;99.90
1994;DHT22;998;49.906;10.908;2023-11-19T10:13:28;11.30;99.90
1994;DHT22;998;49.906;10.908;2023-11-19T10:15:56;11.20;99.90
1994;DHT22;998;49.906;10.908;2023-11-19T10:18:25;11.60;99.90
1994;DHT22;998;49.906;10.908;2023-11-19T10:20:53;11.20;99.90
1994;DHT22;998;49.906;10.908;2023-11-19T10:23:23;11.20;99.90
1994;DHT22;998;49.906;10.908;2023-11-19T10:25:53;11.20;99.90
1994;DHT22;998;49.906;10.908;2023-11-19T10:28:20;11.60;99.90
1994;DHT22;998;49.906;10.908;2023-11-19T10:30:49;11.30;99.90
1994;DHT22;998;49.906;10.908;2023-11-19T10:33:16;11.70;99.90
1994;DHT22;998;49.906;10.908;2023-11-19T10:35:52;11.80;99.90
1994;DHT22;998;49.906;10.908;2023-11-19T10:38:20;11.80;99.90
1994;DHT22;998;49.906;10.908;2023-11-19T10:40:48;11.80;99.90
1994;DHT22;998;49.906;10.908;2023-11-19T10:43:16;12.00;99.90
1994;DHT22;998;49.906;10.908;2023-11-19T10:45:44;12.30;99.90
1994;DHT22;998;49.906;10.908;2023-11-19T10:48:13;13.10;99.90
1994;DHT22;998;49.906;10.908;2023-11-19T10:50:42;13.90;99.90
1994;DHT22;998;49.906;10.908;2023-11-19T10:53:10;14.40;99.90
1994;DHT22;998;49.906;10.908;2023-11-19T10:55:39;14.80;99.90
1994;DHT22;998;49.906;10.908;2023-11-19T10:58:09;14.50;99.90
1994;DHT22;998;49.906;10.908;2023-11-19T11:00:39;14.20;99.90
1994;DHT22;998;49.906;10.908;2023-11-19T11:03:15;14.00;99.90
1994;DHT22;998;49.906;10.908;2023-11-19T11:05:43;14.10;99.90
1994;DHT22;998;49.906;10.908;2023-11-19T11:08:13;14.30;99.90
1994;DHT22;998;49.906;10.908;2023-11-19T11:10:44;14.50;99.90
1994;DHT22;998;49.906;10.908;2023-11-19T11:13:13;14.40;99.90
1994;DHT22;998;49.906;10.908;2023-11-19T11:15:41;14.20;99.90
1994;DHT22;998;49.906;10.908;2023-11-19T11:18:09;14.00;99.90
1994;DHT22;998;49.906;10.908;2023-11-19T11:20:38;13.80;99.90
1994;DHT22;998;49.906;10.908;2023-11-19T11:23:28;13.70;99.90
1994;DHT22;998;49.906;10.908;2023-11-19T11:26:16;13.50;99.90
1994;DHT22;998;49.906;10.908;2023-11-19T11:28:52;13.60;99.90
1994;DHT22;998;49.906;10.908;2023-11-19T11:31:29;13.60;99.90
1994;DHT22;998;49.906;10.908;2023-11-19T11:37:13;13.70;99.90
1994;DHT22;998;49.906;10.908;2023-11-19T11:39:43;14.00;99.90
1994;DHT22;998;49.906;10.908;2023-11-19T11:42:34;13.90;99.90
1994;DHT22;998;49.906;10.908;2023-11-19T11:45:03;13.70;99.90
1994;DHT22;998;49.906;10.908;2023-11-19T11:50:51;13.50;99.90
1994;DHT22;998;49.906;10.908;2023-11-19T11:53:22;13.40;99.90
1994;DHT22;998;49.906;10.908;2023-11-19T11:55:55;13.60;99.90
1994;DHT22;998;49.906;10.908;2023-11-19T11:58:35;13.80;99.90
1994;DHT22;998;49.906;10.908;2023-11-19T12:01:05;14.00;99.90
1994;DHT22;998;49.906;10.908;2023-11-19T12:03:33;14.20;99.90
1994;DHT22;998;49.906;10.908;2023-11-19T12:06:01;14.30;99.90
1994;DHT22;998;49.906;10.908;2023-11-19T12:08:30;14.40;99.90
1994;DHT22;998;49.906;10.908;2023-11-19T12:10:58;14.00;99.90
1994;DHT22;998;49.906;10.908;2023-11-19T12:13:46;13.90;99.90
1994;DHT22;998;49.906;10.908;2023-11-19T12:16:14;13.70;99.90
1994;DHT22;998;49.906;10.908;2023-11-19T12:18:42;13.60;99.90
1994;DHT22;998;49.906;10.908;2023-11-19T12:21:09;13.40;99.90
1994;DHT22;998;49.906;10.908;2023-11-19T12:23:46;13.50;99.90
1994;DHT22;998;49.906;10.908;2023-11-19T12:26:30;13.40;99.90
1994;DHT22;998;49.906;10.908;2023-11-19T12:28:58;13.40;99.90
1994;DHT22;998;49.906;10.908;2023-11-19T12:31:27;13.60;99.90
1994;DHT22;998;49.906;10.908;2023-11-19T12:33:54;13.30;99.90
1994;DHT22;998;49.906;10.908;2023-11-19T12:36:22;13.70;99.90
1994;DHT22;998;49.906;10.908;2023-11-19T12:38:51;14.00;99.90
1994;DHT22;998;49.906;10.908;2023-11-19T12:41:18;13.80;99.90
1994;DHT22;998;49.906;10.908;2023-11-19T12:43:49;13.80;99.90
1994;DHT22;998;49.906;10.908;2023-11-19T12:46:18;13.50;99.90
1994;DHT22;998;49.906;10.908;2023-11-19T12:48:47;13.50;99.90
1994;DHT22;998;49.906;10.908;2023-11-19T12:51:14;13.30;99.90
1994;DHT22;998;49.906;10.908;2023-11-19T12:53:48;13.30;99.90
1994;DHT22;998;49.906;10.908;2023-11-19T12:56:18;13.30;99.90
1994;DHT22;998;49.906;10.908;2023-11-19T12:58:45;13.30;99.90
1994;DHT22;998;49.906;10.908;2023-11-19T13:01:16;13.20;99.90
1994;DHT22;998;49.906;10.908;2023-11-19T13:03:45;13.20;99.90
1994;DHT22;998;49.906;10.908;2023-11-19T13:06:13;13.00;99.90
1994;DHT22;998;49.906;10.908;2023-11-19T13:08:42;12.90;99.90
1994;DHT22;998;49.906;10.908;2023-11-19T13:11:11;13.00;99.90
1994;DHT22;998;49.906;10.908;2023-11-19T13:13:58;13.10;99.90
1994;DHT22;998;49.906;10.908;2023-11-19T13:16:27;13.40;99.90
1994;DHT22;998;49.906;10.908;2023-11-19T13:18:54;13.10;99.90
1994;DHT22;998;49.906;10.908;2023-11-19T13:21:22;13.10;99.90
1994;DHT22;998;49.906;10.908;2023-11-19T13:23:49;13.10;99.90
1994;DHT22;998;49.906;10.908;2023-11-19T13:26:16;13.00;99.90
1994;DHT22;998;49.906;10.908;2023-11-19T13:28:44;13.20;99.90
1994;DHT22;998;49.906;10.908;2023-11-19T13:31:13;12.90;99.90
1994;DHT22;998;49.906;10.908;2023-11-19T13:33:41;13.10;99.90
1994;DHT22;998;49.906;10.908;2023-11-19T13:36:08;13.30;99.90
1994;DHT22;998;49.906;10.908;2023-11-19T13:38:36;13.40;99.90
1994;DHT22;998;49.906;10.908;2023-11-19T13:41:04;13.80;99.90
1994;DHT22;998;49.906;10.908;2023-11-19T13:43:31;14.10;99.90
1994;DHT22;998;49.906;10.908;2023-11-19T13:45:59;14.10;99.90
1994;DHT22;998;49.906;10.908;2023-11-19T13:48:27;14.20;99.90
1994;DHT22;998;49.906;10.908;2023-11-19T13:50:55;14.50;99.90
1994;DHT22;998;49.906;10.908;2023-11-19T13:53:22;14.10;99.90
1994;DHT22;998;49.906;10.908;2023-11-19T13:55:49;13.70;99.90
1994;DHT22;998;49.906;10.908;2023-11-19T13:58:16;13.60;99.90
1994;DHT22;998;49.906;10.908;2023-11-19T14:00:43;13.50;99.90
1994;DHT22;998;49.906;10.908;2023-11-19T14:03:10;14.00;99.90
1994;DHT22;998;49.906;10.908;2023-11-19T14:05:39;13.70;99.90
1994;DHT22;998;49.906;10.908;2023-11-19T14:08:07;13.40;99.90
1994;DHT22;998;49.906;10.908;2023-11-19T14:10:37;13.30;99.90
1994;DHT22;998;49.906;10.908;2023-11-19T14:13:06;13.30;99.90
1994;DHT22;998;49.906;10.908;2023-11-19T14:15:33;13.40;99.90
1994;DHT22;998;49.906;10.908;2023-11-19T14:18:01;13.50;99.90
1994;DHT22;998;49.906;10.908;2023-11-19T14:20:29;13.50;99.90
1994;DHT22;998;49.906;10.908;2023-11-19T14:22:57;14.00;99.90
1994;DHT22;998;49.906;10.908;2023-11-19T14:25:24;13.90;99.90
1994;DHT22;998;49.906;10.908;2023-11-19T14:27:51;13.60;99.90
1994;DHT22;998;49.906;10.908;2023-11-19T14:30:19;13.90;99.90
1994;DHT22;998;49.906;10.908;2023-11-19T14:32:46;13.70;99.90
1994;DHT22;998;49.906;10.908;2023-11-19T14:35:14;13.60;99.90
1994;DHT22;998;49.906;10.908;2023-11-19T14:37:42;13.80;99.90
1994;DHT22;998;49.906;10.908;2023-11-19T14:40:18;13.40;99.90
1994;DHT22;998;49.906;10.908;2023-11-19T14:42:45;12.70;99.90
1994;DHT22;998;49.906;10.908;2023-11-19T14:45:13;13.60;99.90
1994;DHT22;998;49.906;10.908;2023-11-19T14:47:43;13.70;99.90
1994;DHT22;998;49.906;10.908;2023-11-19T14:50:10;14.00;99.90
1994;DHT22;998;49.906;10.908;2023-11-19T14:52:37;13.70;99.90
1994;DHT22;998;49.906;10.908;2023-11-19T14:55:05;13.70;99.90
1994;DHT22;998;49.906;10.908;2023-11-19T14:57:34;13.70;99.90
1994;DHT22;998;49.906;10.908;2023-11-19T15:00:02;13.60;99.90
1994;DHT22;998;49.906;10.908;2023-11-19T15:02:38;13.50;99.90
1994;DHT22;998;49.906;10.908;2023-11-19T15:05:07;13.50;99.90
1994;DHT22;998;49.906;10.908;2023-11-19T15:07:36;13.40;99.90
1994;DHT22;998;49.906;10.908;2023-11-19T15:10:03;13.30;99.90
1994;DHT22;998;49.906;10.908;2023-11-19T15:12:36;13.10;99.90
1994;DHT22;998;49.906;10.908;2023-11-19T15:15:08;13.40;99.90
1994;DHT22;998;49.906;10.908;2023-11-19T15:17:39;13.00;99.90
1994;DHT22;998;49.906;10.908;2023-11-19T15:20:07;13.00;99.90
1994;DHT22;998;49.906;10.908;2023-11-19T15:22:35;12.90;99.90
1994;DHT22;998;49.906;10.908;2023-11-19T15:25:08;13.00;99.90
1994;DHT22;998;49.906;10.908;2023-11-19T15:28:18;11.50;99.90
1994;DHT22;998;49.906;10.908;2023-11-19T15:30:46;13.00;99.90
1994;DHT22;998;49.906;10.908;2023-11-19T15:33:13;12.90;99.90
1994;DHT22;998;49.906;10.908;2023-11-19T15:35:40;13.20;99.90
1994;DHT22;998;49.906;10.908;2023-11-19T15:38:07;13.40;99.90
1994;DHT22;998;49.906;10.908;2023-11-19T15:40:35;12.80;99.90
1994;DHT22;998;49.906;10.908;2023-11-19T15:43:03;12.80;99.90
1994;DHT22;998;49.906;10.908;2023-11-19T15:45:33;13.30;99.90
1994;DHT22;998;49.906;10.908;2023-11-19T15:48:03;13.10;99.90
1994;DHT22;998;49.906;10.908;2023-11-19T15:50:30;12.70;99.90
1994;DHT22;998;49.906;10.908;2023-11-19T15:52:57;13.00;99.90
1994;DHT22;998;49.906;10.908;2023-11-19T15:55:27;13.00;99.90
1994;DHT22;998;49.906;10.908;2023-11-19T15:57:54;12.50;99.90
1994;DHT22;998;49.906;10.908;2023-11-19T16:00:22;12.50;99.90
1994;DHT22;998;49.906;10.908;2023-11-19T16:02:51;12.50;99.90
1994;DHT22;998;49.906;10.908;2023-11-19T16:05:18;12.50;99.90
1994;DHT22;998;49.906;10.908;2023-11-19T16:07:46;12.90;99.90
1994;DHT22;998;49.906;10.908;2023-11-19T16:10:13;12.40;99.90
1994;DHT22;998;49.906;10.908;2023-11-19T16:12:40;12.50;99.90
1994;DHT22;998;49.906;10.908;2023-11-19T16:15:08;12.60;99.90
1994;DHT22;998;49.906;10.908;2023-11-19T16:17:36;12.50;99.90
1994;DHT22;998;49.906;10.908;2023-11-19T16:20:07;12.30;99.90
1994;DHT22;998;49.906;10.908;2023-11-19T16:22:36;12.50;99.90
1994;DHT22;998;49.906;10.908;2023-11-19T16:25:03;12.30;99.90
1994;DHT22;998;49.906;10.908;2023-11-19T16:27:31;12.40;99.90